createdAt,value
2019-03-16T00:00:28.951Z,9.20
2019-03-16T00:02:57.886Z,9.60
2019-03-16T00:05:27.048Z,8.53
2019-03-16T00:07:55.962Z,9.07
2019-03-16T00:10:29.033Z,9.07
2019-03-16T00:12:58.257Z,8.60
2019-03-16T00:15:26.985Z,8.40
2019-03-16T00:17:55.931Z,9.00
2019-03-16T00:20:24.867Z,9.30
2019-03-16T00:22:53.754Z,8.73
2019-03-16T00:25:22.502Z,9.40
2019-03-16T00:27:51.289Z,8.60
2019-03-16T00:30:20.385Z,9.27
2019-03-16T00:32:49.176Z,9.00
2019-03-16T00:35:18.072Z,9.47
2019-03-16T00:37:46.892Z,9.67
2019-03-16T00:40:15.878Z,9.10
2019-03-16T00:42:45.206Z,9.17
2019-03-16T00:45:13.873Z,9.27
2019-03-16T00:47:42.727Z,9.40
2019-03-16T00:50:13.558Z,8.70
2019-03-16T00:52:42.376Z,9.97
2019-03-16T00:55:11.754Z,9.23
2019-03-16T00:57:40.904Z,10.53
2019-03-16T01:00:14.200Z,9.70
2019-03-16T01:02:43.049Z,10.40
2019-03-16T01:05:12.020Z,10.13
2019-03-16T01:07:40.949Z,10.03
2019-03-16T01:10:10.583Z,9.67
2019-03-16T01:12:39.769Z,9.57
2019-03-16T01:15:10.950Z,9.97
2019-03-16T01:17:39.771Z,9.43
2019-03-16T01:20:12.443Z,9.27
2019-03-16T01:22:41.664Z,9.67
2019-03-16T01:25:11.814Z,9.50
2019-03-16T01:27:40.814Z,9.23
2019-03-16T01:30:15.112Z,9.30
2019-03-16T01:32:43.792Z,9.43
2019-03-16T01:35:12.591Z,9.60
2019-03-16T01:37:41.123Z,9.63
2019-03-16T01:40:11.484Z,10.83
2019-03-16T01:42:41.885Z,9.63
2019-03-16T01:45:11.331Z,9.57
2019-03-16T01:47:40.195Z,9.27
2019-03-16T01:50:10.570Z,10.07
2019-03-16T01:52:40.821Z,10.00
2019-03-16T01:55:09.841Z,9.63
2019-03-16T01:57:38.549Z,9.60
2019-03-16T02:00:12.253Z,9.47
2019-03-16T02:02:54.174Z,9.20
2019-03-16T02:05:11.545Z,10.07
2019-03-16T02:07:40.410Z,10.10
2019-03-16T02:10:13.572Z,9.43
2019-03-16T02:12:43.276Z,10.27
2019-03-16T02:15:12.345Z,9.90
2019-03-16T02:17:41.041Z,9.17
2019-03-16T02:20:10.686Z,10.07
2019-03-16T02:22:39.569Z,9.67
2019-03-16T02:25:09.110Z,9.93
2019-03-16T02:27:37.726Z,9.63
2019-03-16T02:30:11.016Z,9.00
2019-03-16T02:32:40.079Z,9.70
2019-03-16T02:35:09.035Z,9.13
2019-03-16T02:37:37.751Z,10.10
2019-03-16T02:40:09.391Z,9.47
2019-03-16T02:42:38.125Z,9.67
2019-03-16T02:45:08.813Z,9.20
2019-03-16T02:47:37.394Z,9.30
2019-03-16T02:50:08.090Z,9.00
2019-03-16T02:52:36.715Z,10.27
2019-03-16T02:55:07.472Z,10.20
2019-03-16T02:57:35.928Z,9.00
2019-03-16T03:00:07.650Z,9.93
2019-03-16T03:02:36.257Z,9.60
2019-03-16T03:05:06.755Z,9.43
2019-03-16T03:07:35.510Z,9.40
2019-03-16T03:10:06.478Z,9.80
2019-03-16T03:12:35.346Z,9.83
2019-03-16T03:15:04.961Z,9.13
2019-03-16T03:17:33.674Z,9.83
2019-03-16T03:20:02.347Z,9.20
2019-03-16T03:22:31.118Z,10.10
2019-03-16T03:24:59.801Z,9.83
2019-03-16T03:27:28.384Z,10.80
2019-03-16T03:29:57.811Z,9.33
2019-03-16T03:32:26.682Z,9.50
2019-03-16T03:34:55.669Z,10.37
2019-03-16T03:37:24.378Z,9.80
2019-03-16T03:39:53.054Z,9.77
2019-03-16T03:42:22.081Z,10.27
2019-03-16T03:44:50.811Z,8.90
2019-03-16T03:47:19.634Z,9.73
2019-03-16T03:49:48.400Z,9.23
2019-03-16T03:52:17.091Z,9.67
2019-03-16T03:54:46.060Z,10.00
2019-03-16T03:57:14.940Z,9.20
2019-03-16T03:59:43.872Z,9.50
2019-03-16T04:02:12.769Z,9.97
2019-03-16T04:04:42.030Z,8.30
2019-03-16T04:07:10.914Z,10.70
2019-03-16T04:09:39.691Z,10.20
2019-03-16T04:12:08.694Z,9.80
2019-03-16T04:14:37.343Z,9.70
2019-03-16T04:17:06.098Z,9.73
2019-03-16T04:19:35.020Z,9.33
2019-03-16T04:22:03.972Z,10.27
2019-03-16T04:24:32.628Z,10.80
2019-03-16T04:27:15.205Z,10.00
2019-03-16T04:29:32.668Z,9.43
2019-03-16T04:32:01.505Z,9.47
2019-03-16T04:34:30.418Z,10.03
2019-03-16T04:36:59.133Z,9.43
2019-03-16T04:39:28.088Z,8.90
2019-03-16T04:41:56.815Z,8.90
2019-03-16T04:44:25.632Z,10.53
2019-03-16T04:46:54.475Z,10.33
2019-03-16T04:49:23.969Z,10.10
2019-03-16T04:51:52.653Z,9.90
2019-03-16T04:54:21.612Z,10.30
2019-03-16T04:56:50.560Z,10.27
2019-03-16T04:59:19.355Z,8.90
2019-03-16T05:01:53.593Z,9.73
2019-03-16T05:04:22.570Z,9.33
2019-03-16T05:06:52.406Z,9.63
2019-03-16T05:09:21.158Z,9.43
2019-03-16T05:11:56.142Z,9.37
2019-03-16T05:14:24.962Z,10.00
2019-03-16T05:16:53.891Z,9.80
2019-03-16T05:19:22.421Z,10.40
2019-03-16T05:21:51.118Z,9.30
2019-03-16T05:24:19.912Z,10.13
2019-03-16T05:26:48.397Z,10.83
2019-03-16T05:29:16.850Z,9.40
2019-03-16T05:31:45.294Z,9.90
2019-03-16T05:34:13.879Z,9.53
2019-03-16T05:36:42.451Z,9.80
2019-03-16T05:39:10.881Z,9.43
2019-03-16T05:41:39.390Z,9.53
2019-03-16T05:44:08.290Z,9.20
2019-03-16T05:46:36.762Z,9.60
2019-03-16T05:49:05.270Z,10.37
2019-03-16T05:51:33.849Z,10.67
2019-03-16T05:54:02.380Z,9.50
2019-03-16T05:56:30.910Z,10.03
2019-03-16T05:58:59.539Z,9.70
2019-03-16T06:01:28.130Z,10.77
2019-03-16T06:03:56.574Z,10.20
2019-03-16T06:06:27.447Z,10.60
2019-03-16T06:08:55.283Z,9.33
2019-03-16T06:11:23.960Z,9.30
2019-03-16T06:13:52.519Z,10.07
2019-03-16T06:16:20.969Z,9.37
2019-03-16T06:18:49.546Z,9.47
2019-03-16T06:21:18.013Z,9.77
2019-03-16T06:23:46.584Z,8.73
2019-03-16T06:26:15.379Z,10.37
2019-03-16T06:28:44.124Z,9.90
2019-03-16T06:31:12.608Z,10.23
2019-03-16T06:33:41.185Z,10.27
2019-03-16T06:36:09.742Z,10.50
2019-03-16T06:38:38.149Z,10.33
2019-03-16T06:41:06.732Z,9.90
2019-03-16T06:43:38.635Z,9.60
2019-03-16T06:46:07.118Z,10.03
2019-03-16T06:48:35.660Z,10.90
2019-03-16T06:51:04.423Z,9.40
2019-03-16T06:53:33.478Z,9.80
2019-03-16T06:56:02.060Z,10.27
2019-03-16T06:58:30.885Z,9.60
2019-03-16T07:00:59.369Z,9.67
2019-03-16T07:03:27.914Z,9.60
2019-03-16T07:05:56.674Z,9.23
2019-03-16T07:08:25.472Z,10.60
2019-03-16T07:10:54.105Z,9.40
2019-03-16T07:13:22.719Z,9.73
2019-03-16T07:15:51.279Z,9.57
2019-03-16T07:18:19.737Z,10.50
2019-03-16T07:20:48.162Z,10.30
2019-03-16T07:23:16.877Z,10.17
2019-03-16T07:25:45.425Z,9.30
2019-03-16T07:28:13.952Z,9.80
2019-03-16T07:30:42.481Z,10.40
2019-03-16T07:33:11.346Z,10.20
2019-03-16T07:35:39.780Z,9.50
2019-03-16T07:38:08.272Z,10.13
2019-03-16T07:40:36.804Z,10.57
2019-03-16T07:43:05.602Z,10.00
2019-03-16T07:45:34.176Z,10.47
2019-03-16T07:48:02.710Z,10.67
2019-03-16T07:50:31.217Z,9.60
2019-03-16T07:52:59.746Z,9.60
2019-03-16T07:55:28.194Z,10.30
2019-03-16T07:57:56.754Z,9.40
2019-03-16T08:00:25.548Z,9.97
2019-03-16T08:02:54.156Z,10.00
2019-03-16T08:05:22.644Z,9.50
2019-03-16T08:07:51.459Z,9.33
2019-03-16T08:10:20.290Z,10.67
2019-03-16T08:12:48.810Z,9.83
2019-03-16T08:15:17.542Z,10.50
2019-03-16T08:17:46.043Z,9.83
2019-03-16T08:20:14.637Z,9.20
2019-03-16T08:22:43.401Z,10.40
2019-03-16T08:25:11.967Z,10.30
2019-03-16T08:27:52.996Z,10.43
2019-03-16T08:30:11.551Z,10.17
2019-03-16T08:32:40.075Z,9.77
2019-03-16T08:35:09.118Z,10.23
2019-03-16T08:37:37.581Z,10.13
2019-03-16T08:40:08.407Z,9.57
2019-03-16T08:42:36.966Z,11.60
2019-03-16T08:45:07.980Z,10.10
2019-03-16T08:47:36.621Z,9.70
2019-03-16T08:50:09.647Z,10.47
2019-03-16T08:52:38.661Z,10.00
2019-03-16T08:55:08.454Z,10.10
2019-03-16T08:57:36.963Z,10.27
2019-03-16T09:00:11.026Z,10.57
2019-03-16T09:02:39.695Z,9.57
2019-03-16T09:05:08.704Z,10.17
2019-03-16T09:07:37.244Z,10.13
2019-03-16T09:10:09.911Z,10.40
2019-03-16T09:12:38.497Z,10.23
2019-03-16T09:15:10.324Z,9.60
2019-03-16T09:17:38.789Z,10.00
2019-03-16T09:20:08.844Z,9.23
2019-03-16T09:22:37.360Z,9.37
2019-03-16T09:25:10.410Z,10.30
2019-03-16T09:27:39.065Z,10.60
2019-03-16T09:30:10.864Z,9.97
2019-03-16T09:32:39.478Z,9.80
2019-03-16T09:35:08.091Z,10.27
2019-03-16T09:37:36.767Z,10.93
2019-03-16T09:40:08.004Z,10.63
2019-03-16T09:42:36.887Z,10.43
2019-03-16T09:45:07.942Z,9.70
2019-03-16T09:47:36.474Z,10.23
2019-03-16T09:50:07.478Z,9.80
2019-03-16T09:52:36.161Z,10.63
2019-03-16T09:55:07.343Z,10.60
2019-03-16T09:57:35.923Z,10.37
2019-03-16T10:00:16.015Z,10.70
2019-03-16T10:02:44.539Z,9.40
2019-03-16T10:05:13.382Z,10.60
2019-03-16T10:07:42.089Z,9.67
2019-03-16T10:10:12.698Z,10.10
2019-03-16T10:12:41.430Z,10.13
2019-03-16T10:15:11.509Z,13.70
2019-03-16T10:17:40.292Z,10.20
2019-03-16T10:20:13.597Z,9.80
2019-03-16T10:22:42.189Z,9.93
2019-03-16T10:25:11.281Z,9.90
2019-03-16T10:27:40.787Z,9.20
2019-03-16T10:30:14.082Z,9.83
2019-03-16T10:32:42.695Z,10.23
2019-03-16T10:35:11.695Z,10.00
2019-03-16T10:37:40.549Z,10.30
2019-03-16T10:40:11.063Z,10.00
2019-03-16T10:42:39.557Z,10.43
2019-03-16T10:45:09.986Z,9.93
2019-03-16T10:47:38.530Z,9.23
2019-03-16T10:50:09.869Z,9.30
2019-03-16T10:52:38.387Z,10.07
2019-03-16T10:55:07.909Z,9.40
2019-03-16T10:57:36.417Z,9.53
2019-03-16T11:00:10.661Z,9.13
2019-03-16T11:02:39.167Z,9.90
2019-03-16T11:05:07.891Z,10.07
2019-03-16T11:07:36.360Z,9.87
2019-03-16T11:10:07.720Z,10.13
2019-03-16T11:12:36.166Z,9.10
2019-03-16T11:15:07.428Z,9.10
2019-03-16T11:17:36.021Z,9.03
2019-03-16T11:20:07.626Z,8.93
2019-03-16T11:22:36.243Z,8.43
2019-03-16T11:25:06.628Z,8.90
2019-03-16T11:27:35.371Z,8.60
2019-03-16T11:30:04.754Z,8.27
2019-03-16T11:32:33.215Z,8.40
2019-03-16T11:35:02.180Z,8.33
2019-03-16T11:37:30.715Z,8.53
2019-03-16T11:39:59.183Z,8.13
2019-03-16T11:42:27.825Z,8.47
2019-03-16T11:44:56.404Z,8.80
2019-03-16T11:47:25.042Z,8.07
2019-03-16T11:49:53.530Z,8.57
2019-03-16T11:52:22.049Z,9.10
2019-03-16T11:54:50.616Z,8.73
2019-03-16T11:57:19.131Z,8.90
2019-03-16T11:59:47.710Z,9.17
2019-03-16T12:02:16.422Z,8.63
2019-03-16T12:04:44.984Z,8.73
2019-03-16T12:07:13.771Z,8.70
2019-03-16T12:09:42.406Z,8.50
2019-03-16T12:12:11.322Z,8.97
2019-03-16T12:14:39.843Z,8.80
2019-03-16T12:17:08.463Z,8.70
2019-03-16T12:19:37.358Z,8.80
2019-03-16T12:22:05.916Z,8.70
2019-03-16T12:24:34.766Z,8.77
2019-03-16T12:27:04.006Z,8.80
2019-03-16T12:29:34.998Z,9.10
2019-03-16T12:32:03.766Z,8.70
2019-03-16T12:34:33.083Z,8.77
2019-03-16T12:37:01.988Z,8.40
2019-03-16T12:39:30.920Z,9.10
2019-03-16T12:42:00.054Z,9.70
2019-03-16T12:44:33.261Z,9.20
2019-03-16T12:47:11.926Z,9.30
2019-03-16T12:49:43.799Z,9.33
2019-03-16T12:52:15.290Z,9.50
2019-03-16T12:54:47.430Z,9.30
2019-03-16T12:57:24.672Z,9.50
2019-03-16T12:59:53.539Z,9.27
2019-03-16T13:02:27.897Z,9.50
2019-03-16T13:05:01.559Z,8.70
2019-03-16T13:07:35.242Z,9.47
2019-03-16T13:10:19.490Z,9.60
2019-03-16T13:12:52.694Z,8.90
2019-03-16T13:15:22.222Z,8.60
2019-03-16T13:17:50.842Z,8.80
2019-03-16T13:23:16.789Z,8.87
2019-03-16T13:25:48.076Z,8.73
2019-03-16T13:28:19.976Z,8.53
2019-03-16T13:30:50.248Z,8.87
2019-03-16T13:33:18.765Z,8.47
2019-03-16T13:35:53.720Z,8.40
2019-03-16T13:38:30.732Z,8.10
2019-03-16T13:41:05.298Z,8.50
2019-03-16T13:43:35.947Z,8.77
2019-03-16T13:46:04.752Z,8.00
2019-03-16T13:48:36.843Z,7.60
2019-03-16T13:51:07.275Z,7.80
2019-03-16T13:56:28.266Z,7.80
2019-03-16T13:58:58.285Z,7.80
2019-03-16T14:01:27.007Z,8.13
2019-03-16T14:03:55.527Z,8.00
2019-03-16T14:06:25.201Z,8.67
2019-03-16T14:08:54.133Z,8.50
2019-03-16T14:11:22.787Z,8.33
2019-03-16T14:13:53.027Z,8.30
2019-03-16T14:16:21.739Z,8.37
2019-03-16T14:18:52.429Z,7.90
2019-03-16T14:21:20.942Z,7.40
2019-03-16T14:23:49.493Z,8.00
2019-03-16T14:26:22.785Z,8.30
2019-03-16T14:28:51.238Z,8.30
2019-03-16T14:31:24.219Z,8.57
2019-03-16T14:33:52.966Z,8.50
2019-03-16T14:36:21.601Z,8.80
2019-03-16T14:38:51.710Z,14.23
2019-03-16T14:41:23.498Z,17.17
2019-03-16T14:43:52.164Z,11.10
2019-03-16T14:46:22.461Z,9.27
2019-03-16T14:48:51.177Z,8.63
2019-03-16T14:51:19.756Z,8.57
2019-03-16T14:53:51.450Z,9.00
2019-03-16T14:56:23.581Z,8.80
2019-03-16T14:58:52.061Z,8.87
2019-03-16T15:01:20.504Z,8.80
2019-03-16T15:03:49.214Z,8.80
2019-03-16T15:06:17.755Z,9.17
2019-03-16T15:08:46.151Z,8.80
2019-03-16T15:11:14.636Z,8.87
2019-03-16T15:13:43.140Z,8.70
2019-03-16T15:16:11.970Z,8.70
2019-03-16T15:18:40.670Z,8.87
2019-03-16T15:21:09.544Z,9.50
2019-03-16T15:23:38.114Z,8.80
2019-03-16T15:26:06.623Z,10.20
2019-03-16T15:28:35.180Z,10.20
2019-03-16T15:31:03.651Z,9.20
2019-03-16T15:33:32.386Z,9.00
2019-03-16T15:36:00.842Z,9.20
2019-03-16T15:38:30.884Z,9.00
2019-03-16T15:40:59.480Z,9.40
2019-03-16T15:43:28.250Z,9.00
2019-03-16T15:45:57.125Z,9.20
2019-03-16T15:48:25.644Z,9.20
2019-03-16T15:50:54.219Z,9.40
2019-03-16T15:53:22.901Z,9.03
2019-03-16T15:55:51.509Z,8.80
2019-03-16T15:58:20.050Z,9.60
2019-03-16T16:00:49.262Z,9.37
2019-03-16T16:03:17.944Z,9.90
2019-03-16T16:05:49.245Z,9.47
2019-03-16T16:08:19.357Z,9.80
2019-03-16T16:11:00.471Z,10.00
2019-03-16T16:13:20.955Z,10.20
2019-03-16T16:15:49.455Z,10.10
2019-03-16T16:18:18.041Z,9.77
2019-03-16T16:20:47.087Z,10.27
2019-03-16T16:23:26.166Z,9.37
2019-03-16T16:25:54.698Z,9.60
2019-03-16T16:28:23.366Z,11.90
2019-03-16T16:30:51.964Z,10.47
2019-03-16T16:33:20.568Z,11.03
2019-03-16T16:35:49.322Z,10.60
2019-03-16T16:38:20.998Z,11.10
2019-03-16T16:40:49.587Z,10.83
2019-03-16T16:43:18.288Z,11.20
2019-03-16T16:45:46.998Z,10.60
2019-03-16T16:48:17.355Z,11.00
2019-03-16T16:50:45.853Z,11.37
2019-03-16T16:53:14.355Z,11.80
2019-03-16T16:55:42.954Z,11.60
2019-03-16T16:58:11.528Z,13.27
2019-03-16T17:00:40.120Z,12.40
2019-03-16T17:03:08.699Z,12.50
2019-03-16T17:05:37.148Z,13.20
2019-03-16T17:08:05.702Z,13.53
2019-03-16T17:10:34.482Z,12.13
2019-03-16T17:13:05.111Z,13.90
2019-03-16T17:15:33.721Z,14.23
2019-03-16T17:18:02.375Z,13.83
2019-03-16T17:20:30.901Z,14.00
2019-03-16T17:22:59.734Z,14.10
2019-03-16T17:25:28.600Z,14.93
2019-03-16T17:27:57.142Z,15.00
2019-03-16T17:30:34.287Z,14.93
2019-03-16T17:33:02.890Z,16.10
2019-03-16T17:35:31.492Z,15.93
2019-03-16T17:38:00.124Z,16.43
2019-03-16T17:40:29.350Z,17.03
2019-03-16T17:42:57.950Z,16.33
2019-03-16T17:45:26.760Z,15.90
2019-03-16T17:47:55.980Z,16.40
2019-03-16T17:50:24.870Z,18.60
2019-03-16T17:52:59.817Z,16.93
2019-03-16T17:55:28.574Z,17.97
2019-03-16T17:57:57.350Z,17.47
2019-03-16T18:00:25.897Z,17.57
2019-03-16T18:02:54.427Z,18.27
2019-03-16T18:05:22.899Z,19.23
2019-03-16T18:07:52.165Z,18.40
2019-03-16T18:10:20.772Z,18.40
2019-03-16T18:12:49.297Z,19.50
2019-03-16T18:15:22.147Z,20.80
2019-03-16T18:17:51.429Z,19.47
2019-03-16T18:20:20.573Z,18.90
2019-03-16T18:22:56.475Z,19.63
2019-03-16T18:25:25.536Z,20.27
2019-03-16T18:27:55.792Z,20.07
2019-03-16T18:30:26.433Z,20.40
2019-03-16T18:32:56.526Z,20.97
2019-03-16T18:35:28.158Z,20.87
2019-03-16T18:37:59.045Z,21.93
2019-03-16T18:40:36.787Z,21.43
2019-03-16T18:43:06.196Z,21.20
2019-03-16T18:45:35.142Z,19.93
2019-03-16T18:48:07.383Z,21.90
2019-03-16T18:50:40.494Z,23.27
2019-03-16T18:53:11.136Z,21.43
2019-03-16T18:55:40.238Z,22.70
2019-03-16T18:58:09.047Z,20.27
2019-03-16T19:00:44.358Z,21.23
2019-03-16T19:03:22.760Z,20.80
2019-03-16T19:05:53.139Z,21.90
2019-03-16T19:08:21.764Z,21.00
2019-03-16T19:10:53.053Z,22.77
2019-03-16T19:13:20.834Z,20.67
2019-03-16T19:15:55.423Z,20.33
2019-03-16T19:18:26.913Z,21.33
2019-03-16T19:20:56.127Z,20.90
2019-03-16T19:23:27.099Z,21.13
2019-03-16T19:25:57.160Z,20.83
2019-03-16T19:28:25.842Z,19.97
2019-03-16T19:30:57.291Z,18.80
2019-03-16T19:33:30.705Z,18.40
2019-03-16T19:35:59.661Z,17.97
2019-03-16T19:38:28.463Z,20.33
2019-03-16T19:40:57.009Z,17.70
2019-03-16T19:43:25.374Z,18.17
2019-03-16T19:45:53.869Z,17.00
2019-03-16T19:48:22.602Z,16.23
2019-03-16T19:50:51.271Z,17.20
2019-03-16T19:53:19.995Z,17.20
2019-03-16T19:55:48.505Z,16.00
2019-03-16T19:58:17.197Z,15.93
2019-03-16T20:00:45.827Z,16.33
2019-03-16T20:03:14.681Z,16.90
2019-03-16T20:05:43.564Z,15.80
2019-03-16T20:08:12.489Z,17.70
2019-03-16T20:10:41.101Z,15.53
2019-03-16T20:13:14.421Z,16.17
2019-03-16T20:15:44.041Z,16.47
2019-03-16T20:18:12.854Z,16.30
2019-03-16T20:20:41.581Z,16.30
2019-03-16T20:23:11.333Z,16.30
2019-03-16T20:25:39.925Z,17.20
2019-03-16T20:28:08.465Z,16.13
2019-03-16T20:30:37.126Z,16.20
2019-03-16T20:33:05.807Z,16.40
2019-03-16T20:35:34.525Z,17.00
2019-03-16T20:38:04.810Z,16.73
2019-03-16T20:40:33.509Z,16.90
2019-03-16T20:43:02.173Z,17.03
2019-03-16T20:45:34.936Z,15.33
2019-03-16T20:48:03.548Z,16.07
2019-03-16T20:50:32.180Z,17.13
2019-03-16T20:53:00.797Z,16.17
2019-03-16T20:55:29.532Z,15.20
2019-03-16T20:57:58.174Z,14.57
2019-03-16T21:00:26.782Z,15.60
2019-03-16T21:02:56.148Z,14.30
2019-03-16T21:05:24.823Z,13.80
2019-03-16T21:07:53.427Z,14.77
2019-03-16T21:10:22.060Z,13.30
2019-03-16T21:12:50.715Z,12.87
2019-03-16T21:15:19.516Z,12.50
2019-03-16T21:17:48.093Z,13.10
2019-03-16T21:20:18.802Z,12.47
2019-03-16T21:22:47.341Z,12.40
2019-03-16T21:25:16.643Z,11.73
2019-03-16T21:27:45.190Z,12.10
2019-03-16T21:30:15.980Z,11.67
2019-03-16T21:32:44.897Z,11.53
2019-03-16T21:35:13.492Z,12.23
2019-03-16T21:37:42.111Z,10.83
2019-03-16T21:40:14.736Z,11.40
2019-03-16T21:42:43.499Z,10.60
2019-03-16T21:45:13.101Z,11.33
2019-03-16T21:47:41.657Z,10.40
2019-03-16T21:50:16.895Z,9.80
2019-03-16T21:52:45.410Z,10.43
2019-03-16T21:55:14.564Z,9.90
2019-03-16T21:57:43.184Z,10.20
2019-03-16T22:00:16.594Z,9.97
2019-03-16T22:02:45.033Z,9.73
2019-03-16T22:05:16.975Z,10.20
2019-03-16T22:07:45.750Z,9.73
2019-03-16T22:10:17.886Z,9.73
2019-03-16T22:12:46.972Z,9.70
2019-03-16T22:15:16.383Z,9.63
2019-03-16T22:17:45.215Z,9.60
2019-03-16T22:20:19.737Z,9.20
2019-03-16T22:22:50.061Z,9.13
2019-03-16T22:25:18.717Z,9.70
2019-03-16T22:27:47.365Z,9.27
2019-03-16T22:30:16.707Z,9.70
2019-03-16T22:32:47.833Z,9.70
2019-03-16T22:35:16.747Z,9.43
2019-03-16T22:37:45.257Z,10.00
2019-03-16T22:40:14.918Z,9.43
2019-03-16T22:42:43.498Z,9.00
2019-03-16T22:45:13.925Z,9.60
2019-03-16T22:47:42.448Z,9.20
2019-03-16T22:50:14.023Z,9.93
2019-03-16T22:52:42.481Z,9.30
2019-03-16T22:55:10.984Z,9.00
2019-03-16T22:57:39.881Z,9.80
2019-03-16T23:00:16.998Z,9.30
2019-03-16T23:02:45.503Z,9.40
2019-03-16T23:05:14.410Z,9.30
2019-03-16T23:07:42.935Z,9.80
2019-03-16T23:10:12.638Z,9.53
2019-03-16T23:12:41.202Z,9.90
2019-03-16T23:15:12.507Z,9.77
2019-03-16T23:17:41.108Z,9.40
2019-03-16T23:20:10.668Z,10.40
2019-03-16T23:22:39.260Z,10.00
2019-03-16T23:25:09.214Z,9.47
2019-03-16T23:27:37.861Z,9.67
2019-03-16T23:30:08.277Z,9.83
2019-03-16T23:32:36.830Z,9.60
2019-03-16T23:35:06.581Z,9.73
2019-03-16T23:37:35.118Z,9.70
2019-03-16T23:40:04.938Z,9.80
2019-03-16T23:42:33.470Z,10.20
2019-03-16T23:45:02.059Z,10.20
2019-03-16T23:47:30.651Z,10.33
2019-03-16T23:49:59.163Z,9.70
2019-03-16T23:52:27.884Z,9.87
2019-03-16T23:54:56.503Z,9.90
2019-03-16T23:57:24.979Z,10.30
2019-03-16T23:59:53.375Z,9.77
